sensor_id;sensor_type;location;lat;lon;timestamp;pressure;altitude;pressure_sealevel;temperature;humidity
60371;BME280;48550;40.588;49.684;2023-05-21T00:02:25;101239.38;;;15.77;100.00
60371;BME280;48550;40.588;49.684;2023-05-21T00:04:54;101231.78;;;15.74;100.00
60371;BME280;48550;40.588;49.684;2023-05-21T00:07:20;101221.47;;;15.71;100.00
60371;BME280;48550;40.588;49.684;2023-05-21T00:09:46;101220.91;;;15.69;100.00
60371;BME280;48550;40.588;49.684;2023-05-21T00:12:11;101231.72;;;15.69;100.00
60371;BME280;48550;40.588;49.684;2023-05-21T00:14:37;101243.63;;;15.68;100.00
60371;BME280;48550;40.588;49.684;2023-05-21T00:17:03;101251.75;;;15.68;100.00
60371;BME280;48550;40.588;49.684;2023-05-21T00:19:29;101265.84;;;15.70;100.00
60371;BME280;48550;40.588;49.684;2023-05-21T00:21:57;101275.59;;;15.71;100.00
60371;BME280;48550;40.588;49.684;2023-05-21T00:24:22;101286.16;;;15.72;100.00
60371;BME280;48550;40.588;49.684;2023-05-21T00:26:48;101280.44;;;15.69;100.00
60371;BME280;48550;40.588;49.684;2023-05-21T00:29:14;101285.28;;;15.67;100.00
60371;BME280;48550;40.588;49.684;2023-05-21T00:31:39;101282.00;;;15.65;100.00
60371;BME280;48550;40.588;49.684;2023-05-21T00:34:05;101274.97;;;15.64;100.00
60371;BME280;48550;40.588;49.684;2023-05-21T00:36:31;101287.44;;;15.65;100.00
60371;BME280;48550;40.588;49.684;2023-05-21T00:38:59;101285.69;;;15.58;100.00
60371;BME280;48550;40.588;49.684;2023-05-21T00:41:24;101287.59;;;15.58;100.00
60371;BME280;48550;40.588;49.684;2023-05-21T00:43:50;101292.66;;;15.54;100.00
60371;BME280;48550;40.588;49.684;2023-05-21T00:46:18;101290.75;;;15.55;100.00
60371;BME280;48550;40.588;49.684;2023-05-21T00:48:46;101286.16;;;15.55;100.00
60371;BME280;48550;40.588;49.684;2023-05-21T00:51:16;101277.47;;;15.53;100.00
60371;BME280;48550;40.588;49.684;2023-05-21T00:53:44;101280.13;;;15.48;100.00
60371;BME280;48550;40.588;49.684;2023-05-21T00:56:11;101272.50;;;15.45;100.00
60371;BME280;48550;40.588;49.684;2023-05-21T00:58:38;101279.31;;;15.48;100.00
60371;BME280;48550;40.588;49.684;2023-05-21T01:01:04;101270.88;;;15.44;100.00
60371;BME280;48550;40.588;49.684;2023-05-21T01:03:34;101277.94;;;15.45;100.00
60371;BME280;48550;40.588;49.684;2023-05-21T01:06:07;101274.97;;;15.47;100.00
60371;BME280;48550;40.588;49.684;2023-05-21T01:08:34;101273.09;;;15.47;100.00
60371;BME280;48550;40.588;49.684;2023-05-21T01:11:03;101269.63;;;15.52;100.00
60371;BME280;48550;40.588;49.684;2023-05-21T01:13:30;101260.19;;;15.54;100.00
60371;BME280;48550;40.588;49.684;2023-05-21T01:15:55;101264.28;;;15.57;100.00
60371;BME280;48550;40.588;49.684;2023-05-21T01:18:25;101271.91;;;15.60;100.00
60371;BME280;48550;40.588;49.684;2023-05-21T01:20:51;101269.22;;;15.60;100.00
60371;BME280;48550;40.588;49.684;2023-05-21T01:23:18;101280.63;;;15.62;100.00
60371;BME280;48550;40.588;49.684;2023-05-21T01:25:45;101275.22;;;15.62;100.00
60371;BME280;48550;40.588;49.684;2023-05-21T01:28:12;101282.81;;;15.65;100.00
60371;BME280;48550;40.588;49.684;2023-05-21T01:30:39;101276.59;;;15.65;100.00
60371;BME280;48550;40.588;49.684;2023-05-21T01:33:24;101269.31;;;15.65;100.00
60371;BME280;48550;40.588;49.684;2023-05-21T01:36:03;101263.88;;;15.65;100.00
60371;BME280;48550;40.588;49.684;2023-05-21T01:38:40;101268.47;;;15.65;100.00
60371;BME280;48550;40.588;49.684;2023-05-21T01:41:09;101267.66;;;15.64;100.00
60371;BME280;48550;40.588;49.684;2023-05-21T01:43:38;101273.06;;;15.64;100.00
60371;BME280;48550;40.588;49.684;2023-05-21T01:46:09;101274.16;;;15.63;100.00
60371;BME280;48550;40.588;49.684;2023-05-21T01:48:35;101270.69;;;15.68;100.00
60371;BME280;48550;40.588;49.684;2023-05-21T01:51:04;101274.47;;;15.67;100.00
60371;BME280;48550;40.588;49.684;2023-05-21T01:53:30;101269.59;;;15.69;100.00
60371;BME280;48550;40.588;49.684;2023-05-21T01:55:55;101270.75;;;15.73;100.00
60371;BME280;48550;40.588;49.684;2023-05-21T01:58:21;101268.28;;;15.71;100.00
60371;BME280;48550;40.588;49.684;2023-05-21T02:00:48;101265.38;;;15.78;100.00
60371;BME280;48550;40.588;49.684;2023-05-21T02:03:18;101263.19;;;15.75;100.00
60371;BME280;48550;40.588;49.684;2023-05-21T02:05:44;101253.50;;;15.79;100.00
60371;BME280;48550;40.588;49.684;2023-05-21T02:08:10;101256.75;;;15.81;100.00
60371;BME280;48550;40.588;49.684;2023-05-21T02:10:37;101257.78;;;15.75;100.00
60371;BME280;48550;40.588;49.684;2023-05-21T02:13:02;101264.56;;;15.77;100.00
60371;BME280;48550;40.588;49.684;2023-05-21T02:15:28;101264.38;;;15.84;100.00
60371;BME280;48550;40.588;49.684;2023-05-21T02:17:54;101266.00;;;15.85;100.00
60371;BME280;48550;40.588;49.684;2023-05-21T02:20:20;101275.56;;;15.93;100.00
60371;BME280;48550;40.588;49.684;2023-05-21T02:22:47;101266.22;;;16.05;100.00
60371;BME280;48550;40.588;49.684;2023-05-21T02:25:15;101254.91;;;16.13;100.00
60371;BME280;48550;40.588;49.684;2023-05-21T02:27:41;101252.91;;;16.31;100.00
60371;BME280;48550;40.588;49.684;2023-05-21T02:30:10;101261.53;;;16.55;100.00
60371;BME280;48550;40.588;49.684;2023-05-21T02:32:36;101256.38;;;16.53;100.00
60371;BME280;48550;40.588;49.684;2023-05-21T02:35:04;101256.25;;;16.38;100.00
60371;BME280;48550;40.588;49.684;2023-05-21T02:37:30;101258.63;;;16.34;100.00
60371;BME280;48550;40.588;49.684;2023-05-21T02:39:58;101271.03;;;16.57;100.00
60371;BME280;48550;40.588;49.684;2023-05-21T02:42:25;101280.94;;;16.73;100.00
60371;BME280;48550;40.588;49.684;2023-05-21T02:44:51;101289.13;;;16.78;100.00
60371;BME280;48550;40.588;49.684;2023-05-21T02:47:18;101287.19;;;16.74;100.00
60371;BME280;48550;40.588;49.684;2023-05-21T02:49:44;101280.81;;;16.58;100.00
60371;BME280;48550;40.588;49.684;2023-05-21T02:52:10;101279.63;;;16.76;100.00
60371;BME280;48550;40.588;49.684;2023-05-21T02:54:36;101265.50;;;16.74;100.00
60371;BME280;48550;40.588;49.684;2023-05-21T02:57:02;101264.69;;;16.73;100.00
60371;BME280;48550;40.588;49.684;2023-05-21T02:59:28;101266.31;;;16.74;100.00
60371;BME280;48550;40.588;49.684;2023-05-21T03:01:53;101257.09;;;16.75;100.00
60371;BME280;48550;40.588;49.684;2023-05-21T03:04:19;101255.56;;;16.90;100.00
60371;BME280;48550;40.588;49.684;2023-05-21T03:06:46;101263.00;;;16.67;100.00
60371;BME280;48550;40.588;49.684;2023-05-21T03:09:12;101263.72;;;16.58;100.00
60371;BME280;48550;40.588;49.684;2023-05-21T03:11:38;101264.38;;;16.70;100.00
60371;BME280;48550;40.588;49.684;2023-05-21T03:14:04;101256.38;;;16.53;100.00
60371;BME280;48550;40.588;49.684;2023-05-21T03:16:30;101254.56;;;16.64;100.00
60371;BME280;48550;40.588;49.684;2023-05-21T03:18:59;101271.69;;;16.69;100.00
60371;BME280;48550;40.588;49.684;2023-05-21T03:21:25;101270.09;;;16.73;100.00
60371;BME280;48550;40.588;49.684;2023-05-21T03:23:54;101271.34;;;16.98;100.00
60371;BME280;48550;40.588;49.684;2023-05-21T03:26:26;101272.75;;;17.53;100.00
60371;BME280;48550;40.588;49.684;2023-05-21T03:28:52;101273.53;;;18.21;100.00
60371;BME280;48550;40.588;49.684;2023-05-21T03:31:18;101263.44;;;18.01;100.00
60371;BME280;48550;40.588;49.684;2023-05-21T03:33:44;101265.09;;;18.42;100.00
60371;BME280;48550;40.588;49.684;2023-05-21T03:36:10;101258.88;;;18.42;100.00
60371;BME280;48550;40.588;49.684;2023-05-21T03:38:35;101254.22;;;18.22;100.00
60371;BME280;48550;40.588;49.684;2023-05-21T03:41:01;101255.06;;;18.38;100.00
60371;BME280;48550;40.588;49.684;2023-05-21T03:43:27;101262.94;;;19.00;100.00
60371;BME280;48550;40.588;49.684;2023-05-21T03:45:53;101273.53;;;19.07;100.00
60371;BME280;48550;40.588;49.684;2023-05-21T03:48:19;101269.69;;;19.18;100.00
60371;BME280;48550;40.588;49.684;2023-05-21T03:50:45;101268.69;;;18.68;100.00
60371;BME280;48550;40.588;49.684;2023-05-21T03:53:11;101275.03;;;19.59;100.00
60371;BME280;48550;40.588;49.684;2023-05-21T03:55:37;101265.50;;;20.11;100.00
60371;BME280;48550;40.588;49.684;2023-05-21T03:58:03;101261.78;;;20.36;100.00
60371;BME280;48550;40.588;49.684;2023-05-21T04:00:29;101273.56;;;21.89;100.00
60371;BME280;48550;40.588;49.684;2023-05-21T04:02:57;101276.06;;;21.86;100.00
60371;BME280;48550;40.588;49.684;2023-05-21T04:05:23;101274.25;;;22.19;100.00
60371;BME280;48550;40.588;49.684;2023-05-21T04:07:49;101275.41;;;21.51;100.00
60371;BME280;48550;40.588;49.684;2023-05-21T04:10:14;101277.84;;;21.53;100.00
60371;BME280;48550;40.588;49.684;2023-05-21T04:12:40;101280.41;;;21.44;100.00
60371;BME280;48550;40.588;49.684;2023-05-21T04:15:06;101277.13;;;22.79;100.00
60371;BME280;48550;40.588;49.684;2023-05-21T04:17:32;101279.94;;;22.41;100.00
60371;BME280;48550;40.588;49.684;2023-05-21T04:19:59;101279.00;;;22.13;100.00
60371;BME280;48550;40.588;49.684;2023-05-21T04:22:25;101278.88;;;22.89;100.00
60371;BME280;48550;40.588;49.684;2023-05-21T04:24:54;101278.53;;;23.23;91.79
60371;BME280;48550;40.588;49.684;2023-05-21T04:27:23;101283.03;;;22.54;100.00
60371;BME280;48550;40.588;49.684;2023-05-21T04:29:49;101268.16;;;22.92;96.55
60371;BME280;48550;40.588;49.684;2023-05-21T04:32:15;101265.00;;;22.99;91.51
60371;BME280;48550;40.588;49.684;2023-05-21T04:34:42;101270.84;;;21.89;100.00
60371;BME280;48550;40.588;49.684;2023-05-21T04:37:09;101269.19;;;22.64;100.00
60371;BME280;48550;40.588;49.684;2023-05-21T04:39:34;101269.34;;;21.97;100.00
60371;BME280;48550;40.588;49.684;2023-05-21T04:42:01;101264.50;;;21.28;100.00
60371;BME280;48550;40.588;49.684;2023-05-21T04:44:30;101259.47;;;22.20;100.00
60371;BME280;48550;40.588;49.684;2023-05-21T04:46:55;101264.03;;;23.08;87.90
60371;BME280;48550;40.588;49.684;2023-05-21T04:49:21;101253.19;;;23.31;87.02
60371;BME280;48550;40.588;49.684;2023-05-21T04:51:47;101246.34;;;20.60;100.00
60371;BME280;48550;40.588;49.684;2023-05-21T04:54:16;101245.16;;;19.93;100.00
60371;BME280;48550;40.588;49.684;2023-05-21T04:56:41;101235.00;;;20.04;100.00
60371;BME280;48550;40.588;49.684;2023-05-21T04:59:08;101227.91;;;18.73;100.00
60371;BME280;48550;40.588;49.684;2023-05-21T05:01:33;101231.28;;;19.35;100.00
60371;BME280;48550;40.588;49.684;2023-05-21T05:03:59;101223.69;;;19.86;100.00
60371;BME280;48550;40.588;49.684;2023-05-21T05:06:25;101217.78;;;18.94;100.00
60371;BME280;48550;40.588;49.684;2023-05-21T05:08:51;101204.34;;;19.33;100.00
60371;BME280;48550;40.588;49.684;2023-05-21T05:11:17;101206.38;;;18.87;100.00
60371;BME280;48550;40.588;49.684;2023-05-21T05:13:43;101200.44;;;18.70;100.00
60371;BME280;48550;40.588;49.684;2023-05-21T05:16:09;101212.66;;;18.47;100.00
60371;BME280;48550;40.588;49.684;2023-05-21T05:18:34;101207.13;;;19.08;100.00
60371;BME280;48550;40.588;49.684;2023-05-21T05:21:00;101205.44;;;19.32;100.00
60371;BME280;48550;40.588;49.684;2023-05-21T05:23:26;101206.66;;;21.25;100.00
60371;BME280;48550;40.588;49.684;2023-05-21T05:25:52;101209.00;;;22.31;100.00
60371;BME280;48550;40.588;49.684;2023-05-21T05:28:18;101209.41;;;23.67;100.00
60371;BME280;48550;40.588;49.684;2023-05-21T05:30:44;101212.19;;;22.52;100.00
60371;BME280;48550;40.588;49.684;2023-05-21T05:33:09;101213.44;;;22.60;100.00
60371;BME280;48550;40.588;49.684;2023-05-21T05:35:36;101211.59;;;21.85;100.00
60371;BME280;48550;40.588;49.684;2023-05-21T05:38:02;101202.72;;;22.77;100.00
60371;BME280;48550;40.588;49.684;2023-05-21T05:40:27;101198.03;;;24.32;89.11
60371;BME280;48550;40.588;49.684;2023-05-21T05:42:53;101206.06;;;25.13;71.78
60371;BME280;48550;40.588;49.684;2023-05-21T05:45:19;101197.78;;;24.20;81.13
60371;BME280;48550;40.588;49.684;2023-05-21T05:47:45;101195.13;;;25.30;71.86
60371;BME280;48550;40.588;49.684;2023-05-21T05:50:11;101198.59;;;25.05;74.74
60371;BME280;48550;40.588;49.684;2023-05-21T05:52:37;101194.03;;;23.57;87.78
60371;BME280;48550;40.588;49.684;2023-05-21T05:55:03;101187.66;;;22.93;99.69
60371;BME280;48550;40.588;49.684;2023-05-21T05:57:29;101194.69;;;24.66;80.88
60371;BME280;48550;40.588;49.684;2023-05-21T05:59:54;101192.13;;;25.00;74.24
60371;BME280;48550;40.588;49.684;2023-05-21T06:02:20;101184.53;;;24.97;71.59
60371;BME280;48550;40.588;49.684;2023-05-21T06:04:46;101192.59;;;24.40;76.59
60371;BME280;48550;40.588;49.684;2023-05-21T06:07:12;101192.38;;;24.28;74.92
60371;BME280;48550;40.588;49.684;2023-05-21T06:09:38;101196.09;;;24.55;71.56
60371;BME280;48550;40.588;49.684;2023-05-21T06:12:05;101201.38;;;22.61;95.84
60371;BME280;48550;40.588;49.684;2023-05-21T06:14:31;101204.81;;;23.12;90.65
60371;BME280;48550;40.588;49.684;2023-05-21T06:16:57;101204.78;;;22.99;91.25
60371;BME280;48550;40.588;49.684;2023-05-21T06:19:22;101208.09;;;23.64;82.70
60371;BME280;48550;40.588;49.684;2023-05-21T06:21:48;101210.00;;;23.77;83.19
60371;BME280;48550;40.588;49.684;2023-05-21T06:24:14;101203.38;;;23.29;90.98
60371;BME280;48550;40.588;49.684;2023-05-21T06:26:40;101201.50;;;23.52;86.54
60371;BME280;48550;40.588;49.684;2023-05-21T06:29:07;101201.34;;;23.21;85.61
60371;BME280;48550;40.588;49.684;2023-05-21T06:31:33;101201.38;;;24.51;77.17
60371;BME280;48550;40.588;49.684;2023-05-21T06:33:59;101198.34;;;24.53;73.34
60371;BME280;48550;40.588;49.684;2023-05-21T06:36:25;101187.47;;;24.25;69.09
60371;BME280;48550;40.588;49.684;2023-05-21T06:38:56;101185.53;;;22.90;89.03
60371;BME280;48550;40.588;49.684;2023-05-21T06:41:22;101186.47;;;24.21;76.67
60371;BME280;48550;40.588;49.684;2023-05-21T06:43:48;101192.69;;;24.89;63.47
60371;BME280;48550;40.588;49.684;2023-05-21T06:46:14;101189.53;;;22.79;81.40
60371;BME280;48550;40.588;49.684;2023-05-21T06:48:39;101182.03;;;21.31;100.00
60371;BME280;48550;40.588;49.684;2023-05-21T06:51:05;101192.06;;;21.54;100.00
60371;BME280;48550;40.588;49.684;2023-05-21T06:53:31;101178.41;;;20.29;100.00
60371;BME280;48550;40.588;49.684;2023-05-21T06:55:57;101182.19;;;19.99;100.00
60371;BME280;48550;40.588;49.684;2023-05-21T06:58:22;101184.72;;;20.25;100.00
60371;BME280;48550;40.588;49.684;2023-05-21T07:00:48;101193.66;;;19.96;100.00
60371;BME280;48550;40.588;49.684;2023-05-21T07:03:14;101193.38;;;19.54;100.00
60371;BME280;48550;40.588;49.684;2023-05-21T07:05:40;101187.41;;;19.47;100.00
60371;BME280;48550;40.588;49.684;2023-05-21T07:08:06;101172.91;;;18.97;100.00
60371;BME280;48550;40.588;49.684;2023-05-21T07:10:31;101188.06;;;19.78;100.00
60371;BME280;48550;40.588;49.684;2023-05-21T07:12:57;101187.78;;;20.52;100.00
60371;BME280;48550;40.588;49.684;2023-05-21T07:15:23;101168.41;;;20.54;100.00
60371;BME280;48550;40.588;49.684;2023-05-21T07:17:48;101172.63;;;19.63;100.00
60371;BME280;48550;40.588;49.684;2023-05-21T07:20:14;101171.09;;;21.07;100.00
60371;BME280;48550;40.588;49.684;2023-05-21T07:22:40;101172.03;;;21.82;100.00
60371;BME280;48550;40.588;49.684;2023-05-21T07:25:07;101183.28;;;22.32;100.00
60371;BME280;48550;40.588;49.684;2023-05-21T07:27:33;101181.16;;;21.54;100.00
60371;BME280;48550;40.588;49.684;2023-05-21T07:29:59;101177.44;;;20.49;100.00
60371;BME280;48550;40.588;49.684;2023-05-21T07:32:25;101168.25;;;21.78;100.00
60371;BME280;48550;40.588;49.684;2023-05-21T07:34:53;101185.00;;;20.86;100.00
60371;BME280;48550;40.588;49.684;2023-05-21T07:37:19;101184.78;;;21.49;100.00
60371;BME280;48550;40.588;49.684;2023-05-21T07:39:45;101181.69;;;23.19;91.02
60371;BME280;48550;40.588;49.684;2023-05-21T07:42:11;101174.22;;;22.78;94.26
60371;BME280;48550;40.588;49.684;2023-05-21T07:44:37;101173.91;;;22.52;100.00
60371;BME280;48550;40.588;49.684;2023-05-21T07:47:03;101160.72;;;21.70;100.00
60371;BME280;48550;40.588;49.684;2023-05-21T07:49:29;101159.81;;;20.66;100.00
60371;BME280;48550;40.588;49.684;2023-05-21T07:51:55;101165.53;;;20.40;100.00
60371;BME280;48550;40.588;49.684;2023-05-21T07:54:21;101165.69;;;20.78;100.00
60371;BME280;48550;40.588;49.684;2023-05-21T07:56:47;101164.84;;;20.53;100.00
60371;BME280;48550;40.588;49.684;2023-05-21T07:59:15;101164.97;;;21.39;100.00
60371;BME280;48550;40.588;49.684;2023-05-21T08:01:41;101161.47;;;21.57;100.00
60371;BME280;48550;40.588;49.684;2023-05-21T08:04:08;101150.56;;;20.90;100.00
60371;BME280;48550;40.588;49.684;2023-05-21T08:06:33;101160.75;;;20.80;100.00
60371;BME280;48550;40.588;49.684;2023-05-21T08:09:02;101147.94;;;21.28;100.00
60371;BME280;48550;40.588;49.684;2023-05-21T08:11:28;101137.50;;;20.87;100.00
60371;BME280;48550;40.588;49.684;2023-05-21T08:13:54;101153.44;;;20.75;100.00
60371;BME280;48550;40.588;49.684;2023-05-21T08:16:21;101156.44;;;21.21;100.00
60371;BME280;48550;40.588;49.684;2023-05-21T08:18:48;101146.78;;;21.10;100.00
60371;BME280;48550;40.588;49.684;2023-05-21T08:21:14;101133.31;;;20.13;100.00
60371;BME280;48550;40.588;49.684;2023-05-21T08:23:39;101136.13;;;21.33;100.00
60371;BME280;48550;40.588;49.684;2023-05-21T08:26:05;101135.63;;;19.96;100.00
60371;BME280;48550;40.588;49.684;2023-05-21T08:28:31;101144.16;;;19.84;100.00
60371;BME280;48550;40.588;49.684;2023-05-21T08:30:57;101132.38;;;20.28;100.00
60371;BME280;48550;40.588;49.684;2023-05-21T08:33:22;101136.84;;;20.96;100.00
60371;BME280;48550;40.588;49.684;2023-05-21T08:35:48;101135.41;;;21.03;100.00
60371;BME280;48550;40.588;49.684;2023-05-21T08:38:14;101134.56;;;20.55;100.00
60371;BME280;48550;40.588;49.684;2023-05-21T08:40:41;101137.63;;;20.48;100.00
60371;BME280;48550;40.588;49.684;2023-05-21T08:43:07;101145.09;;;20.67;100.00
60371;BME280;48550;40.588;49.684;2023-05-21T08:45:40;101137.78;;;20.86;100.00
60371;BME280;48550;40.588;49.684;2023-05-21T08:48:09;101136.63;;;20.92;100.00
60371;BME280;48550;40.588;49.684;2023-05-21T08:50:36;101138.13;;;20.55;100.00
60371;BME280;48550;40.588;49.684;2023-05-21T08:53:02;101122.75;;;20.36;100.00
60371;BME280;48550;40.588;49.684;2023-05-21T08:55:29;101123.81;;;20.06;100.00
60371;BME280;48550;40.588;49.684;2023-05-21T08:57:55;101104.72;;;20.11;100.00
60371;BME280;48550;40.588;49.684;2023-05-21T09:00:21;101104.91;;;19.46;100.00
60371;BME280;48550;40.588;49.684;2023-05-21T09:02:47;101102.63;;;19.97;100.00
60371;BME280;48550;40.588;49.684;2023-05-21T09:05:14;101104.75;;;19.32;100.00
60371;BME280;48550;40.588;49.684;2023-05-21T09:08:16;101108.41;;;19.91;100.00
60371;BME280;48550;40.588;49.684;2023-05-21T09:10:50;101101.47;;;19.75;100.00
60371;BME280;48550;40.588;49.684;2023-05-21T09:13:17;101103.50;;;19.93;100.00
60371;BME280;48550;40.588;49.684;2023-05-21T09:15:43;101100.78;;;19.93;100.00
60371;BME280;48550;40.588;49.684;2023-05-21T09:18:10;101086.25;;;20.03;100.00
60371;BME280;48550;40.588;49.684;2023-05-21T09:20:35;101090.50;;;19.46;100.00
60371;BME280;48550;40.588;49.684;2023-05-21T09:23:03;101091.81;;;19.04;100.00
60371;BME280;48550;40.588;49.684;2023-05-21T09:25:30;101091.44;;;19.21;100.00
60371;BME280;48550;40.588;49.684;2023-05-21T09:27:55;101091.72;;;19.19;100.00
60371;BME280;48550;40.588;49.684;2023-05-21T09:30:21;101092.09;;;19.52;100.00
60371;BME280;48550;40.588;49.684;2023-05-21T09:33:00;101076.66;;;18.88;100.00
60371;BME280;48550;40.588;49.684;2023-05-21T09:35:27;101080.88;;;19.14;100.00
60371;BME280;48550;40.588;49.684;2023-05-21T09:37:54;101082.28;;;19.01;100.00
60371;BME280;48550;40.588;49.684;2023-05-21T09:40:22;101099.81;;;19.34;100.00
60371;BME280;48550;40.588;49.684;2023-05-21T09:42:52;101088.22;;;19.63;100.00
60371;BME280;48550;40.588;49.684;2023-05-21T09:47:46;101064.16;;;20.09;100.00
60371;BME280;48550;40.588;49.684;2023-05-21T09:50:20;101042.31;;;19.80;100.00
60371;BME280;48550;40.588;49.684;2023-05-21T09:52:47;101033.91;;;18.98;100.00
60371;BME280;48550;40.588;49.684;2023-05-21T09:55:15;101055.31;;;19.59;100.00
60371;BME280;48550;40.588;49.684;2023-05-21T09:57:42;101060.56;;;19.46;100.00
60371;BME280;48550;40.588;49.684;2023-05-21T10:00:15;101051.97;;;19.67;100.00
60371;BME280;48550;40.588;49.684;2023-05-21T10:02:44;101034.16;;;19.80;100.00
60371;BME280;48550;40.588;49.684;2023-05-21T10:05:13;101023.34;;;19.99;100.00
60371;BME280;48550;40.588;49.684;2023-05-21T10:07:50;101032.53;;;19.79;100.00
60371;BME280;48550;40.588;49.684;2023-05-21T10:10:20;101045.00;;;19.85;100.00
60371;BME280;48550;40.588;49.684;2023-05-21T10:13:05;101041.97;;;19.58;100.00
60371;BME280;48550;40.588;49.684;2023-05-21T10:15:46;101040.75;;;19.30;100.00
60371;BME280;48550;40.588;49.684;2023-05-21T10:18:12;101042.72;;;19.24;100.00
60371;BME280;48550;40.588;49.684;2023-05-21T10:20:38;101032.09;;;18.79;100.00
60371;BME280;48550;40.588;49.684;2023-05-21T10:23:05;101045.72;;;19.23;100.00
60371;BME280;48550;40.588;49.684;2023-05-21T10:25:31;101051.25;;;19.52;100.00
60371;BME280;48550;40.588;49.684;2023-05-21T10:27:57;101051.25;;;19.57;100.00
60371;BME280;48550;40.588;49.684;2023-05-21T10:30:23;101049.44;;;19.76;100.00
60371;BME280;48550;40.588;49.684;2023-05-21T10:32:50;101054.13;;;19.26;100.00
60371;BME280;48550;40.588;49.684;2023-05-21T10:35:16;101043.84;;;19.62;100.00
60371;BME280;48550;40.588;49.684;2023-05-21T10:37:45;101047.19;;;19.54;100.00
60371;BME280;48550;40.588;49.684;2023-05-21T10:40:11;101046.72;;;19.76;100.00
60371;BME280;48550;40.588;49.684;2023-05-21T10:51:27;101046.25;;;19.98;100.00
60371;BME280;48550;40.588;49.684;2023-05-21T10:59:44;101041.59;;;19.98;100.00
60371;BME280;48550;40.588;49.684;2023-05-21T11:02:13;101037.88;;;19.60;93.60
60371;BME280;48550;40.588;49.684;2023-05-21T11:04:40;101030.47;;;19.66;100.00
60371;BME280;48550;40.588;49.684;2023-05-21T11:07:12;101021.81;;;19.59;100.00
60371;BME280;48550;40.588;49.684;2023-05-21T11:09:38;101025.53;;;19.34;100.00
60371;BME280;48550;40.588;49.684;2023-05-21T11:12:03;101027.50;;;19.18;100.00
60371;BME280;48550;40.588;49.684;2023-05-21T11:14:39;101029.69;;;19.16;100.00
60371;BME280;48550;40.588;49.684;2023-05-21T11:17:11;101034.25;;;19.26;100.00
60371;BME280;48550;40.588;49.684;2023-05-21T11:19:44;101029.69;;;19.16;100.00
60371;BME280;48550;40.588;49.684;2023-05-21T11:22:26;101027.00;;;19.11;100.00
60371;BME280;48550;40.588;49.684;2023-05-21T11:24:53;101036.09;;;18.96;100.00
60371;BME280;48550;40.588;49.684;2023-05-21T11:27:33;101032.88;;;19.33;100.00
60371;BME280;48550;40.588;49.684;2023-05-21T11:30:05;101029.41;;;19.18;100.00
60371;BME280;48550;40.588;49.684;2023-05-21T11:32:38;101020.13;;;18.80;100.00
60371;BME280;48550;40.588;49.684;2023-05-21T11:35:05;101019.19;;;18.99;100.00
60371;BME280;48550;40.588;49.684;2023-05-21T11:37:33;101020.75;;;18.66;100.00
60371;BME280;48550;40.588;49.684;2023-05-21T11:42:48;101024.09;;;18.97;100.00
60371;BME280;48550;40.588;49.684;2023-05-21T11:45:17;101016.72;;;19.03;100.00
60371;BME280;48550;40.588;49.684;2023-05-21T11:47:43;101005.50;;;19.15;100.00
60371;BME280;48550;40.588;49.684;2023-05-21T11:50:12;100992.50;;;19.07;100.00
60371;BME280;48550;40.588;49.684;2023-05-21T11:52:39;100975.78;;;19.23;100.00
60371;BME280;48550;40.588;49.684;2023-05-21T11:55:06;100984.19;;;18.88;100.00
60371;BME280;48550;40.588;49.684;2023-05-21T11:57:32;100987.91;;;19.02;100.00
60371;BME280;48550;40.588;49.684;2023-05-21T12:00:00;100999.47;;;18.79;100.00
60371;BME280;48550;40.588;49.684;2023-05-21T12:02:29;101006.31;;;19.15;100.00
60371;BME280;48550;40.588;49.684;2023-05-21T12:04:55;100994.66;;;19.10;100.00
60371;BME280;48550;40.588;49.684;2023-05-21T12:07:28;100985.63;;;18.75;100.00
60371;BME280;48550;40.588;49.684;2023-05-21T12:09:54;100988.63;;;18.73;100.00
60371;BME280;48550;40.588;49.684;2023-05-21T12:12:23;100976.31;;;18.86;100.00
60371;BME280;48550;40.588;49.684;2023-05-21T12:14:50;100988.53;;;18.89;100.00
60371;BME280;48550;40.588;49.684;2023-05-21T12:17:18;100978.59;;;19.08;100.00
60371;BME280;48550;40.588;49.684;2023-05-21T12:19:46;100972.47;;;18.92;100.00
60371;BME280;48550;40.588;49.684;2023-05-21T12:22:13;100963.78;;;18.90;100.00
60371;BME280;48550;40.588;49.684;2023-05-21T12:24:41;100967.19;;;19.06;100.00
60371;BME280;48550;40.588;49.684;2023-05-21T12:27:10;100970.06;;;18.86;100.00
60371;BME280;48550;40.588;49.684;2023-05-21T12:29:41;100975.47;;;18.91;100.00
60371;BME280;48550;40.588;49.684;2023-05-21T12:32:09;100970.84;;;18.91;100.00
60371;BME280;48550;40.588;49.684;2023-05-21T12:34:50;100984.25;;;18.78;100.00
60371;BME280;48550;40.588;49.684;2023-05-21T12:37:26;100986.50;;;18.50;100.00
60371;BME280;48550;40.588;49.684;2023-05-21T12:39:53;100984.88;;;18.49;100.00
60371;BME280;48550;40.588;49.684;2023-05-21T12:42:31;100972.44;;;18.33;100.00
60371;BME280;48550;40.588;49.684;2023-05-21T12:45:09;100996.41;;;18.21;100.00
60371;BME280;48550;40.588;49.684;2023-05-21T12:47:36;101004.28;;;18.17;100.00
60371;BME280;48550;40.588;49.684;2023-05-21T12:50:03;100998.63;;;18.08;100.00
60371;BME280;48550;40.588;49.684;2023-05-21T12:52:29;101008.16;;;17.96;100.00